メインページ
METAR-TAF:

METAR-TAF

空港 :

プンタアレナス, チリ

緯度: 53-00S, 経度: 070-51W, 海抜: 37m

現時点の気象観測

当レポートは25分前の21:00(UTC)に作成
北西の風 10kt
気温 6°C
湿度 56%
気圧 995 hPa
視程10km以上
高度4300ftの雲はほとんどない

METAR: SCCI 162100Z 31010KT 9999 FEW043 06/M02 Q0995 NOSIG

時間: 18:25 (21:25 UTC)

予報

当レポートは4時間52分前の16:33(UTC)に作成
予報は16日の 18時(UTC)から 17日の 18時(UTC)まで有効
西の風 16kt、最大26ktの突風を伴う
視程10km以上
高度3300ftの雲は散在している
16日の 18時(UTC)から 16日の 20時(UTC)まで一時的に
西/南西の風 20kt
16日の 21時(UTC)から 17日の 01時(UTC)まで一時的に
北西の風 15kt、最大25ktの突風を伴う
17日の 01時(UTC)から 17日の 03時(UTC)まで徐々に
北/北西の風 15kt、最大25ktの突風を伴う
確率 30% :
17日の 01時(UTC)から 17日の 04時(UTC)まで一時的に
視程: 9000m
高度2500ftの千切れ雲あり
弱いにわか雨
17日の 09時(UTC)から 17日の 11時(UTC)まで徐々に
西の風 20kt、最大30ktの突風を伴う

TAF: SCCI 161633Z 1618/1718 28016G26KT 9999 SCT033 TX06/1618Z TN01/1710Z TEMPO 1618/1620 25020KT TEMPO 1621/1701 31015G25KT BECMG 1701/1703 34015G25KT PROB30 TEMPO 1701/1704 9000 -SHRA BKN025 BECMG 1709/1711 28020G30KT

4,000以上の空港の気象観測と天気予報(METAR報とTAF報)

利用可能な観測所は地図上に黄色い丸と赤い丸で示す。

丸の上にカーソルを重ねると観測所名を参照できる。

次にクリックすると気象観測と天気予報を参照できる。

マップの切り替え:黒色「×」印の緑ボタンをクリックして拡大、「-」印の緑ボタンをクリックして縮小、緑色の三角印をクリックして隣りの地図に切り替え


METAR-TAF: